Estación Meteorológica Peña el Pijo (Robertgarden) [ 09/24/17 17:53:23 CEST ]

Fecha Hora Presion(HPa) Temp (°C) Humedad % Rocio (°C) Viento ( m/s) Direccion Lluvia 1Hora(mm) Lluvia 24H(mm) LLuvia Total(mm)
2017-Aug-17 01:01:52 1014.700 18.2 67 12.0         1439.00
2017-Aug-17 02:01:41 1014.500 17.0 67 10.8         1439.00
2017-Aug-17 03:01:11 1014.400 15.9 67 9.8         1439.00
2017-Aug-17 04:01:08 1014.200 15.8 64 9.0         1439.00
2017-Aug-17 05:01:08 1014.100 14.3 67 8.2         1439.00
2017-Aug-17 06:01:10 1014.100 13.3 70 8.0         1439.00
2017-Aug-17 07:01:40 1014.300 13.2 70 7.9         1439.00
2017-Aug-17 08:01:48 1014.300 13.3 70 8.0         1439.00
2017-Aug-17 09:01:55 1014.400 18.4 61 10.7         1439.00
2017-Aug-17 10:02:07 1014.100 25.9 46 13.3         1439.00
2017-Aug-17 11:01:41 1014.200 31.9 30 12.2         1439.00
2017-Aug-17 12:01:42 1014.100 34.4 28 13.1         1439.00
2017-Aug-17 13:01:42 1014.000 35.8 30 15.5         1439.00
2017-Aug-17 14:01:43 1013.800 33.9 32 14.8 1.5 S     1439.00
2017-Aug-17 15:01:38 1013.800 34.0 32 14.9 2.0 S     1439.00
2017-Aug-17 16:02:03 1013.300 32.4 35 14.9 2.7 SSE     1439.00
2017-Aug-17 17:01:49 1012.900 32.3 37 15.6 1.5 S     1439.00
2017-Aug-17 18:01:42 1013.200 30.1 41 15.4         1439.00
2017-Aug-17 19:01:54 1013.200 30.3 43 16.3         1439.00
2017-Aug-17 20:02:07 1013.300 28.9 46 16.1         1439.00
2017-Aug-17 21:01:48 1013.300 27.1 51 16.1         1439.00
2017-Aug-17 22:01:55 1013.700 24.8 56 15.4         1439.00
2017-Aug-17 23:01:44 1014.000 21.8 62 14.2         1439.00

Temperatura Máxima:35°    Temperatura Mínima:13°
Presión Máxima:1014.700 Hpa    Presión Mínima:1012.900 Hpa


Volver